CST,Max TemperatureF,Mean TemperatureF,Min TemperatureF,Max Dew PointF,MeanDew PointF,Min DewpointF,Max Humidity, Mean Humidity, Min Humidity, Max Sea Level PressureIn, Mean Sea Level PressureIn, Min Sea Level PressureIn, Max VisibilityMiles, Mean VisibilityMiles, Min VisibilityMiles, Max Wind SpeedMPH, Mean Wind SpeedMPH, Max Gust SpeedMPH,PrecipitationIn, CloudCover, Events, WindDirDegrees
2012-1-1,46,37,27,26,22,20,75,56,37,30.69,30.57,30.35,10,10,10,17,7,28,0.00,0,,321
2012-1-2,51,38,25,32,24,19,81,61,41,30.76,30.60,30.37,10,10,10,17,7,22,0.00,0,,234
2012-1-3,64,45,25,37,30,23,85,60,34,30.34,30.17,30.02,10,10,10,16,6,29,0.00,0,,268
2012-1-4,58,45,31,30,27,25,78,54,30,30.46,30.34,30.22,10,10,10,17,10,22,0.00,0,,298
2012-1-5,69,49,28,32,27,23,78,48,17,30.24,30.06,29.83,10,10,10,14,6,17,0.00,0,,217
2012-1-6,52,40,28,31,28,24,85,63,41,30.12,29.92,29.76,10,10,10,30,14,36,0.00,0,,342
2012-1-7,49,37,24,25,21,18,81,55,29,30.15,30.08,29.97,10,10,10,18,8,23,0.00,0,,165
2012-1-8,41,33,24,27,23,20,92,69,46,30.34,30.23,30.09,10,10,10,17,8,26,0.00,4,,6
2012-1-9,52,36,20,26,22,18,92,59,26,30.31,30.23,30.12,10,10,10,13,7,16,0.00,0,,304
2012-1-10,58,42,25,31,28,22,78,57,36,30.09,29.95,29.75,10,10,10,15,7,18,0.00,0,,312
2012-1-11,40,32,23,31,24,8,84,69,54,30.24,29.95,29.67,10,9,1,39,18,48,0.01,5,Snow,352
2012-1-12,44,31,17,14,8,2,67,44,20,30.27,30.20,30.11,10,10,10,26,12,32,0.00,0,,300
2012-1-13,55,37,19,15,12,8,73,44,15,30.18,30.12,30.03,10,10,10,18,8,23,0.00,1,,274
2012-1-14,54,39,24,19,15,11,68,45,21,30.30,30.18,30.05,10,10,10,18,8,23,0.00,0,,179
2012-1-15,66,47,27,20,16,12,57,35,12,30.03,29.83,29.69,10,10,10,26,10,32,0.00,0,,237
2012-1-16,69,49,28,36,29,20,69,48,27,29.93,29.67,29.51,10,10,10,43,21,56,0.00,0,,240
2012-1-17,35,27,18,20,12,6,84,58,32,30.37,30.27,29.97,10,10,10,21,8,24,0.00,0,,21
2012-1-18,62,40,18,21,15,8,68,41,14,30.27,29.99,29.70,10,10,10,21,11,26,0.00,0,,214
2012-1-19,59,46,33,26,24,21,64,45,26,29.92,29.77,29.69,10,10,10,20,9,23,0.00,0,,143
2012-1-20,60,43,26,28,24,16,85,57,29,30.13,29.80,29.57,10,10,10,22,8,26,0.00,0,,30
2012-1-21,66,42,18,29,22,13,80,52,24,30.14,29.75,29.35,10,10,10,35,15,44,0.00,0,,190
2012-1-22,55,43,31,38,28,23,70,51,32,29.98,29.53,29.26,10,10,9,44,20,56,0.01,2,Rain,273
2012-1-23,56,39,22,27,22,17,81,55,28,30.05,29.94,29.82,10,10,10,20,8,25,0.00,0,,185
2012-1-24,51,41,30,29,27,24,69,55,41,30.19,29.95,29.80,10,10,10,22,10,28,0.00,0,,211
2012-1-25,56,42,27,28,22,16,85,54,22,30.19,30.08,29.94,10,10,10,24,9,30,0.00,0,,339
2012-1-26,58,42,26,29,23,18,75,50,24,30.13,30.00,29.78,10,10,10,17,9,25,0.00,0,,317
2012-1-27,51,39,27,29,23,15,58,47,35,30.39,29.97,29.69,10,10,10,37,16,44,0.00,1,,336
2012-1-28,54,35,15,16,13,8,74,47,19,30.48,30.37,30.26,10,10,10,23,10,35,0.00,1,,249
2012-1-29,62,44,26,19,16,13,69,42,15,30.29,30.19,30.08,10,10,10,13,7,16,0.00,0,,220
2012-1-30,73,50,27,22,17,13,58,36,13,30.06,29.85,29.72,10,10,10,16,7,21,0.00,0,,214
2012-1-31,59,47,35,23,19,16,52,36,19,30.09,29.96,29.72,10,10,10,25,9,33,0.00,0,,344